sensor_id;sensor_type;location;lat;lon;timestamp;temperature;humidity
61912;DHT22;49973;52.084;5.412;2022-08-19T00:01:57;17.80;99.90
61912;DHT22;49973;52.084;5.412;2022-08-19T00:04:29;17.90;99.90
61912;DHT22;49973;52.084;5.412;2022-08-19T00:07:00;17.70;99.90
61912;DHT22;49973;52.084;5.412;2022-08-19T00:09:29;17.70;99.90
61912;DHT22;49973;52.084;5.412;2022-08-19T00:11:58;17.70;99.90
61912;DHT22;49973;52.084;5.412;2022-08-19T00:14:27;17.70;99.90
61912;DHT22;49973;52.084;5.412;2022-08-19T00:16:59;17.70;99.90
61912;DHT22;49973;52.084;5.412;2022-08-19T00:19:28;17.60;99.90
61912;DHT22;49973;52.084;5.412;2022-08-19T00:21:58;17.60;99.90
61912;DHT22;49973;52.084;5.412;2022-08-19T00:24:26;17.60;99.90
61912;DHT22;49973;52.084;5.412;2022-08-19T00:26:56;17.50;99.90
61912;DHT22;49973;52.084;5.412;2022-08-19T00:29:44;17.50;99.90
61912;DHT22;49973;52.084;5.412;2022-08-19T00:32:19;17.50;99.90
61912;DHT22;49973;52.084;5.412;2022-08-19T00:34:50;17.40;99.90
61912;DHT22;49973;52.084;5.412;2022-08-19T00:37:22;17.50;99.90
61912;DHT22;49973;52.084;5.412;2022-08-19T00:39:52;17.40;99.90
61912;DHT22;49973;52.084;5.412;2022-08-19T00:42:23;17.40;99.90
61912;DHT22;49973;52.084;5.412;2022-08-19T00:44:55;17.40;99.90
61912;DHT22;49973;52.084;5.412;2022-08-19T00:47:24;17.30;99.90
61912;DHT22;49973;52.084;5.412;2022-08-19T00:49:57;17.30;99.90
61912;DHT22;49973;52.084;5.412;2022-08-19T00:52:34;17.30;99.90
61912;DHT22;49973;52.084;5.412;2022-08-19T00:55:06;17.30;99.90
61912;DHT22;49973;52.084;5.412;2022-08-19T00:57:39;17.20;99.90
61912;DHT22;49973;52.084;5.412;2022-08-19T01:00:11;17.20;99.90
61912;DHT22;49973;52.084;5.412;2022-08-19T01:02:41;17.20;99.90
61912;DHT22;49973;52.084;5.412;2022-08-19T01:05:12;17.20;99.90
61912;DHT22;49973;52.084;5.412;2022-08-19T01:07:43;17.10;99.90
61912;DHT22;49973;52.084;5.412;2022-08-19T01:10:16;17.10;99.90
61912;DHT22;49973;52.084;5.412;2022-08-19T01:12:45;17.10;99.90
61912;DHT22;49973;52.084;5.412;2022-08-19T01:15:17;17.10;99.90
61912;DHT22;49973;52.084;5.412;2022-08-19T01:17:47;17.00;99.90
61912;DHT22;49973;52.084;5.412;2022-08-19T01:20:20;16.90;99.90
61912;DHT22;49973;52.084;5.412;2022-08-19T01:22:53;17.00;99.90
61912;DHT22;49973;52.084;5.412;2022-08-19T01:25:27;17.10;99.90
61912;DHT22;49973;52.084;5.412;2022-08-19T01:27:56;17.00;99.90
61912;DHT22;49973;52.084;5.412;2022-08-19T01:30:37;17.00;99.90
61912;DHT22;49973;52.084;5.412;2022-08-19T01:33:11;17.00;99.90
61912;DHT22;49973;52.084;5.412;2022-08-19T01:35:41;17.00;99.90
61912;DHT22;49973;52.084;5.412;2022-08-19T01:38:21;16.90;99.90
61912;DHT22;49973;52.084;5.412;2022-08-19T01:40:51;16.90;99.90
61912;DHT22;49973;52.084;5.412;2022-08-19T01:43:19;16.90;99.90
61912;DHT22;49973;52.084;5.412;2022-08-19T01:45:48;16.90;99.90
61912;DHT22;49973;52.084;5.412;2022-08-19T01:48:18;16.90;99.90
61912;DHT22;49973;52.084;5.412;2022-08-19T01:50:46;16.90;99.90
61912;DHT22;49973;52.084;5.412;2022-08-19T01:53:18;16.90;99.90
61912;DHT22;49973;52.084;5.412;2022-08-19T01:55:49;16.90;99.90
61912;DHT22;49973;52.084;5.412;2022-08-19T01:58:21;16.90;99.90
61912;DHT22;49973;52.084;5.412;2022-08-19T02:00:51;16.90;99.90
61912;DHT22;49973;52.084;5.412;2022-08-19T02:03:19;16.90;99.90
61912;DHT22;49973;52.084;5.412;2022-08-19T02:05:53;16.90;99.90
61912;DHT22;49973;52.084;5.412;2022-08-19T02:08:23;16.90;99.90
61912;DHT22;49973;52.084;5.412;2022-08-19T02:10:52;16.90;99.90
61912;DHT22;49973;52.084;5.412;2022-08-19T02:13:21;16.90;99.90
61912;DHT22;49973;52.084;5.412;2022-08-19T02:15:52;16.80;99.90
61912;DHT22;49973;52.084;5.412;2022-08-19T02:18:21;16.80;99.90
61912;DHT22;49973;52.084;5.412;2022-08-19T02:20:54;16.90;99.90
61912;DHT22;49973;52.084;5.412;2022-08-19T02:23:24;16.80;99.90
61912;DHT22;49973;52.084;5.412;2022-08-19T02:25:52;16.80;99.90
61912;DHT22;49973;52.084;5.412;2022-08-19T02:28:21;16.80;99.90
61912;DHT22;49973;52.084;5.412;2022-08-19T02:30:49;16.70;99.90
61912;DHT22;49973;52.084;5.412;2022-08-19T02:33:18;16.70;99.90
61912;DHT22;49973;52.084;5.412;2022-08-19T02:35:47;16.70;99.90
61912;DHT22;49973;52.084;5.412;2022-08-19T02:38:15;16.60;99.90
61912;DHT22;49973;52.084;5.412;2022-08-19T02:40:59;16.60;99.90
61912;DHT22;49973;52.084;5.412;2022-08-19T02:43:29;16.60;99.90
61912;DHT22;49973;52.084;5.412;2022-08-19T02:46:01;16.60;99.90
61912;DHT22;49973;52.084;5.412;2022-08-19T02:48:30;16.60;99.90
61912;DHT22;49973;52.084;5.412;2022-08-19T02:50:59;16.60;99.90
61912;DHT22;49973;52.084;5.412;2022-08-19T02:53:28;16.50;99.90
61912;DHT22;49973;52.084;5.412;2022-08-19T02:55:58;16.50;99.90
61912;DHT22;49973;52.084;5.412;2022-08-19T02:58:26;16.50;99.90
61912;DHT22;49973;52.084;5.412;2022-08-19T03:00:56;16.50;99.90
61912;DHT22;49973;52.084;5.412;2022-08-19T03:03:26;16.50;99.90
61912;DHT22;49973;52.084;5.412;2022-08-19T03:06:09;16.40;99.90
61912;DHT22;49973;52.084;5.412;2022-08-19T03:08:39;16.50;99.90
61912;DHT22;49973;52.084;5.412;2022-08-19T03:11:14;16.40;99.90
61912;DHT22;49973;52.084;5.412;2022-08-19T03:13:43;16.40;99.90
61912;DHT22;49973;52.084;5.412;2022-08-19T03:16:12;16.40;99.90
61912;DHT22;49973;52.084;5.412;2022-08-19T03:18:41;16.30;99.90
61912;DHT22;49973;52.084;5.412;2022-08-19T03:21:14;16.30;99.90
61912;DHT22;49973;52.084;5.412;2022-08-19T03:23:43;16.30;99.90
61912;DHT22;49973;52.084;5.412;2022-08-19T03:26:13;16.30;99.90
61912;DHT22;49973;52.084;5.412;2022-08-19T03:28:44;16.30;99.90
61912;DHT22;49973;52.084;5.412;2022-08-19T03:31:25;16.30;99.90
61912;DHT22;49973;52.084;5.412;2022-08-19T03:34:18;16.30;99.90
61912;DHT22;49973;52.084;5.412;2022-08-19T03:36:48;16.30;99.90
61912;DHT22;49973;52.084;5.412;2022-08-19T03:39:17;16.30;99.90
61912;DHT22;49973;52.084;5.412;2022-08-19T03:41:50;16.30;99.90
61912;DHT22;49973;52.084;5.412;2022-08-19T03:44:39;16.30;99.90
61912;DHT22;49973;52.084;5.412;2022-08-19T03:47:09;16.20;99.90
61912;DHT22;49973;52.084;5.412;2022-08-19T03:49:43;16.20;99.90
61912;DHT22;49973;52.084;5.412;2022-08-19T03:52:12;16.20;99.90
61912;DHT22;49973;52.084;5.412;2022-08-19T03:54:41;16.20;99.90
61912;DHT22;49973;52.084;5.412;2022-08-19T03:57:11;16.30;99.90
61912;DHT22;49973;52.084;5.412;2022-08-19T03:59:39;16.20;99.90
61912;DHT22;49973;52.084;5.412;2022-08-19T04:02:10;16.20;99.90
61912;DHT22;49973;52.084;5.412;2022-08-19T04:04:40;16.10;99.90
61912;DHT22;49973;52.084;5.412;2022-08-19T04:07:11;16.10;99.90
61912;DHT22;49973;52.084;5.412;2022-08-19T04:09:40;16.10;99.90
61912;DHT22;49973;52.084;5.412;2022-08-19T04:12:10;16.10;99.90
61912;DHT22;49973;52.084;5.412;2022-08-19T04:14:39;16.10;99.90
61912;DHT22;49973;52.084;5.412;2022-08-19T04:17:08;16.10;99.90
61912;DHT22;49973;52.084;5.412;2022-08-19T04:19:37;16.00;99.90
61912;DHT22;49973;52.084;5.412;2022-08-19T04:22:05;16.10;99.90
61912;DHT22;49973;52.084;5.412;2022-08-19T04:24:34;16.00;99.90
61912;DHT22;49973;52.084;5.412;2022-08-19T04:27:04;16.10;99.90
61912;DHT22;49973;52.084;5.412;2022-08-19T04:29:35;16.10;99.90
61912;DHT22;49973;52.084;5.412;2022-08-19T04:32:06;16.00;99.90
61912;DHT22;49973;52.084;5.412;2022-08-19T04:34:37;16.00;99.90
61912;DHT22;49973;52.084;5.412;2022-08-19T04:37:26;16.00;99.90
61912;DHT22;49973;52.084;5.412;2022-08-19T04:40:04;16.00;99.90
61912;DHT22;49973;52.084;5.412;2022-08-19T04:42:50;15.90;99.90
61912;DHT22;49973;52.084;5.412;2022-08-19T04:45:20;15.90;99.90
61912;DHT22;49973;52.084;5.412;2022-08-19T04:47:49;15.90;99.90
61912;DHT22;49973;52.084;5.412;2022-08-19T04:50:26;16.00;99.90
61912;DHT22;49973;52.084;5.412;2022-08-19T04:52:54;15.80;99.90
61912;DHT22;49973;52.084;5.412;2022-08-19T04:55:24;15.80;99.90
61912;DHT22;49973;52.084;5.412;2022-08-19T04:57:53;15.80;99.90
61912;DHT22;49973;52.084;5.412;2022-08-19T05:00:24;15.70;99.90
61912;DHT22;49973;52.084;5.412;2022-08-19T05:02:52;15.70;99.90
61912;DHT22;49973;52.084;5.412;2022-08-19T05:05:21;15.70;99.90
61912;DHT22;49973;52.084;5.412;2022-08-19T05:07:49;15.70;99.90
61912;DHT22;49973;52.084;5.412;2022-08-19T05:10:18;15.70;99.90
61912;DHT22;49973;52.084;5.412;2022-08-19T05:12:47;15.70;99.90
61912;DHT22;49973;52.084;5.412;2022-08-19T05:15:16;15.70;99.90
61912;DHT22;49973;52.084;5.412;2022-08-19T05:17:47;15.70;99.90
61912;DHT22;49973;52.084;5.412;2022-08-19T05:20:29;15.80;99.90
61912;DHT22;49973;52.084;5.412;2022-08-19T05:23:15;15.80;99.90
61912;DHT22;49973;52.084;5.412;2022-08-19T05:25:49;15.90;99.90
61912;DHT22;49973;52.084;5.412;2022-08-19T05:28:19;15.90;99.90
61912;DHT22;49973;52.084;5.412;2022-08-19T05:30:48;15.90;99.90
61912;DHT22;49973;52.084;5.412;2022-08-19T05:33:19;16.00;99.90
61912;DHT22;49973;52.084;5.412;2022-08-19T05:35:48;16.00;99.90
61912;DHT22;49973;52.084;5.412;2022-08-19T05:38:17;16.00;99.90
61912;DHT22;49973;52.084;5.412;2022-08-19T05:40:46;16.10;99.90
61912;DHT22;49973;52.084;5.412;2022-08-19T05:43:15;16.10;99.90
61912;DHT22;49973;52.084;5.412;2022-08-19T05:45:44;16.20;99.90
61912;DHT22;49973;52.084;5.412;2022-08-19T05:48:14;16.30;99.90
61912;DHT22;49973;52.084;5.412;2022-08-19T05:50:45;16.40;99.90
61912;DHT22;49973;52.084;5.412;2022-08-19T05:53:17;16.60;99.90
61912;DHT22;49973;52.084;5.412;2022-08-19T05:55:46;16.60;99.90
61912;DHT22;49973;52.084;5.412;2022-08-19T05:58:15;16.70;99.90
61912;DHT22;49973;52.084;5.412;2022-08-19T06:00:44;16.90;99.90
61912;DHT22;49973;52.084;5.412;2022-08-19T06:03:12;17.00;99.90
61912;DHT22;49973;52.084;5.412;2022-08-19T06:05:41;17.20;99.90
61912;DHT22;49973;52.084;5.412;2022-08-19T06:08:20;17.30;99.90
61912;DHT22;49973;52.084;5.412;2022-08-19T06:11:19;17.40;99.90
61912;DHT22;49973;52.084;5.412;2022-08-19T06:13:50;17.50;99.90
61912;DHT22;49973;52.084;5.412;2022-08-19T06:16:26;17.70;99.90
61912;DHT22;49973;52.084;5.412;2022-08-19T06:18:59;17.80;99.90
61912;DHT22;49973;52.084;5.412;2022-08-19T06:21:29;18.00;99.90
61912;DHT22;49973;52.084;5.412;2022-08-19T06:23:59;18.20;99.90
61912;DHT22;49973;52.084;5.412;2022-08-19T06:26:28;18.50;99.90
61912;DHT22;49973;52.084;5.412;2022-08-19T06:28:56;18.50;99.90
61912;DHT22;49973;52.084;5.412;2022-08-19T06:31:27;18.70;99.90
61912;DHT22;49973;52.084;5.412;2022-08-19T06:33:55;18.90;99.90
61912;DHT22;49973;52.084;5.412;2022-08-19T06:36:27;19.30;99.90
61912;DHT22;49973;52.084;5.412;2022-08-19T06:39:00;19.40;99.90
61912;DHT22;49973;52.084;5.412;2022-08-19T06:41:30;19.50;99.90
61912;DHT22;49973;52.084;5.412;2022-08-19T06:43:58;19.70;99.90
61912;DHT22;49973;52.084;5.412;2022-08-19T06:46:27;19.90;99.90
61912;DHT22;49973;52.084;5.412;2022-08-19T06:49:01;19.90;99.90
61912;DHT22;49973;52.084;5.412;2022-08-19T06:51:32;20.00;99.90
61912;DHT22;49973;52.084;5.412;2022-08-19T06:54:10;20.00;99.90
61912;DHT22;49973;52.084;5.412;2022-08-19T06:56:46;20.00;99.90
61912;DHT22;49973;52.084;5.412;2022-08-19T06:59:17;20.00;99.90
61912;DHT22;49973;52.084;5.412;2022-08-19T07:01:48;20.00;99.90
61912;DHT22;49973;52.084;5.412;2022-08-19T07:04:20;20.00;99.90
61912;DHT22;49973;52.084;5.412;2022-08-19T07:06:49;20.00;99.90
61912;DHT22;49973;52.084;5.412;2022-08-19T07:09:23;20.00;99.90
61912;DHT22;49973;52.084;5.412;2022-08-19T07:11:52;19.90;99.90
61912;DHT22;49973;52.084;5.412;2022-08-19T07:14:24;19.90;99.90
61912;DHT22;49973;52.084;5.412;2022-08-19T07:16:55;19.90;99.90
61912;DHT22;49973;52.084;5.412;2022-08-19T07:19:25;19.90;99.90
61912;DHT22;49973;52.084;5.412;2022-08-19T07:21:55;20.00;99.90
61912;DHT22;49973;52.084;5.412;2022-08-19T07:24:26;19.90;99.90
61912;DHT22;49973;52.084;5.412;2022-08-19T07:27:01;20.00;99.90
61912;DHT22;49973;52.084;5.412;2022-08-19T07:29:41;20.10;99.90
61912;DHT22;49973;52.084;5.412;2022-08-19T07:32:10;20.20;99.90
61912;DHT22;49973;52.084;5.412;2022-08-19T07:34:39;20.30;99.90
61912;DHT22;49973;52.084;5.412;2022-08-19T07:37:09;20.30;99.90
61912;DHT22;49973;52.084;5.412;2022-08-19T07:39:39;20.30;99.90
61912;DHT22;49973;52.084;5.412;2022-08-19T07:42:09;20.40;99.90
61912;DHT22;49973;52.084;5.412;2022-08-19T07:44:40;20.50;99.90
61912;DHT22;49973;52.084;5.412;2022-08-19T07:47:17;20.50;99.90
61912;DHT22;49973;52.084;5.412;2022-08-19T07:50:09;20.50;99.90
61912;DHT22;49973;52.084;5.412;2022-08-19T07:52:38;20.60;99.90
61912;DHT22;49973;52.084;5.412;2022-08-19T07:55:10;20.70;99.90
61912;DHT22;49973;52.084;5.412;2022-08-19T07:57:59;20.70;99.90
61912;DHT22;49973;52.084;5.412;2022-08-19T08:00:29;20.70;99.90
61912;DHT22;49973;52.084;5.412;2022-08-19T08:02:58;20.70;99.90
61912;DHT22;49973;52.084;5.412;2022-08-19T08:05:26;20.80;99.90
61912;DHT22;49973;52.084;5.412;2022-08-19T08:08:12;21.00;99.90
61912;DHT22;49973;52.084;5.412;2022-08-19T08:11:12;21.30;99.90
61912;DHT22;49973;52.084;5.412;2022-08-19T08:13:42;21.50;99.90
61912;DHT22;49973;52.084;5.412;2022-08-19T08:16:10;21.60;99.90
61912;DHT22;49973;52.084;5.412;2022-08-19T08:18:40;21.60;99.90
61912;DHT22;49973;52.084;5.412;2022-08-19T08:21:19;21.60;99.90
61912;DHT22;49973;52.084;5.412;2022-08-19T08:23:47;21.70;99.90
61912;DHT22;49973;52.084;5.412;2022-08-19T08:26:20;21.70;99.90
61912;DHT22;49973;52.084;5.412;2022-08-19T08:28:49;21.50;99.90
61912;DHT22;49973;52.084;5.412;2022-08-19T08:31:17;21.60;99.90
61912;DHT22;49973;52.084;5.412;2022-08-19T08:33:47;21.70;99.90
61912;DHT22;49973;52.084;5.412;2022-08-19T08:36:16;21.80;99.90
61912;DHT22;49973;52.084;5.412;2022-08-19T08:38:45;21.90;99.90
61912;DHT22;49973;52.084;5.412;2022-08-19T08:41:22;22.00;99.90
61912;DHT22;49973;52.084;5.412;2022-08-19T08:43:55;22.00;99.90
61912;DHT22;49973;52.084;5.412;2022-08-19T08:46:29;22.10;99.90
61912;DHT22;49973;52.084;5.412;2022-08-19T08:49:05;21.90;99.90
61912;DHT22;49973;52.084;5.412;2022-08-19T08:51:40;21.90;99.90
61912;DHT22;49973;52.084;5.412;2022-08-19T08:54:19;22.00;99.90
61912;DHT22;49973;52.084;5.412;2022-08-19T08:56:51;22.20;99.90
61912;DHT22;49973;52.084;5.412;2022-08-19T08:59:28;22.60;99.90
61912;DHT22;49973;52.084;5.412;2022-08-19T09:01:58;23.10;99.90
61912;DHT22;49973;52.084;5.412;2022-08-19T09:04:27;23.80;99.90
61912;DHT22;49973;52.084;5.412;2022-08-19T09:07:16;24.30;99.90
61912;DHT22;49973;52.084;5.412;2022-08-19T09:10:08;24.60;99.90
61912;DHT22;49973;52.084;5.412;2022-08-19T09:12:56;25.00;99.90
61912;DHT22;49973;52.084;5.412;2022-08-19T09:15:32;25.10;99.90
61912;DHT22;49973;52.084;5.412;2022-08-19T09:18:03;25.30;99.90
61912;DHT22;49973;52.084;5.412;2022-08-19T09:20:33;25.60;99.90
61912;DHT22;49973;52.084;5.412;2022-08-19T09:23:07;26.00;99.90
61912;DHT22;49973;52.084;5.412;2022-08-19T09:25:36;26.30;99.90
61912;DHT22;49973;52.084;5.412;2022-08-19T09:28:08;26.60;99.90
61912;DHT22;49973;52.084;5.412;2022-08-19T09:30:49;26.90;99.90
61912;DHT22;49973;52.084;5.412;2022-08-19T09:33:19;27.10;99.90
61912;DHT22;49973;52.084;5.412;2022-08-19T09:35:47;27.20;99.90
61912;DHT22;49973;52.084;5.412;2022-08-19T09:38:20;27.30;99.90
61912;DHT22;49973;52.084;5.412;2022-08-19T09:40:49;27.40;99.90
61912;DHT22;49973;52.084;5.412;2022-08-19T09:43:19;27.50;99.90
61912;DHT22;49973;52.084;5.412;2022-08-19T09:46:08;27.50;99.90
61912;DHT22;49973;52.084;5.412;2022-08-19T09:48:37;27.30;99.90
61912;DHT22;49973;52.084;5.412;2022-08-19T09:51:07;27.00;99.90
61912;DHT22;49973;52.084;5.412;2022-08-19T09:53:38;26.70;99.90
61912;DHT22;49973;52.084;5.412;2022-08-19T09:56:07;26.30;99.90
61912;DHT22;49973;52.084;5.412;2022-08-19T09:58:38;26.10;99.90
61912;DHT22;49973;52.084;5.412;2022-08-19T10:01:15;26.10;99.90
61912;DHT22;49973;52.084;5.412;2022-08-19T10:03:47;25.70;99.90
61912;DHT22;49973;52.084;5.412;2022-08-19T10:06:17;25.60;99.90
61912;DHT22;49973;52.084;5.412;2022-08-19T10:09:07;25.40;99.90
61912;DHT22;49973;52.084;5.412;2022-08-19T10:11:39;25.10;99.90
61912;DHT22;49973;52.084;5.412;2022-08-19T10:14:21;25.00;99.90
61912;DHT22;49973;52.084;5.412;2022-08-19T10:16:50;25.20;99.90
61912;DHT22;49973;52.084;5.412;2022-08-19T10:19:19;25.40;99.90
61912;DHT22;49973;52.084;5.412;2022-08-19T10:21:53;25.70;99.90
61912;DHT22;49973;52.084;5.412;2022-08-19T10:24:26;25.70;99.90
61912;DHT22;49973;52.084;5.412;2022-08-19T10:26:56;26.00;99.90
61912;DHT22;49973;52.084;5.412;2022-08-19T10:29:27;26.30;99.90
61912;DHT22;49973;52.084;5.412;2022-08-19T10:31:59;26.50;99.90
61912;DHT22;49973;52.084;5.412;2022-08-19T10:34:30;26.70;99.90
61912;DHT22;49973;52.084;5.412;2022-08-19T10:36:59;26.80;99.90
61912;DHT22;49973;52.084;5.412;2022-08-19T10:39:28;26.90;99.90
61912;DHT22;49973;52.084;5.412;2022-08-19T10:42:04;26.90;99.90
61912;DHT22;49973;52.084;5.412;2022-08-19T10:44:34;26.90;99.90
61912;DHT22;49973;52.084;5.412;2022-08-19T10:47:04;27.00;99.90
61912;DHT22;49973;52.084;5.412;2022-08-19T10:49:51;27.10;99.90
61912;DHT22;49973;52.084;5.412;2022-08-19T10:52:41;27.30;99.90
61912;DHT22;49973;52.084;5.412;2022-08-19T10:55:18;27.40;99.90
61912;DHT22;49973;52.084;5.412;2022-08-19T10:58:09;27.60;99.90
61912;DHT22;49973;52.084;5.412;2022-08-19T11:00:40;27.70;99.90
61912;DHT22;49973;52.084;5.412;2022-08-19T11:03:09;27.80;99.90
61912;DHT22;49973;52.084;5.412;2022-08-19T11:05:38;27.80;99.90
61912;DHT22;49973;52.084;5.412;2022-08-19T11:08:07;28.00;99.90
61912;DHT22;49973;52.084;5.412;2022-08-19T11:10:51;28.30;99.90
61912;DHT22;49973;52.084;5.412;2022-08-19T11:13:21;28.40;99.90
61912;DHT22;49973;52.084;5.412;2022-08-19T11:15:58;28.70;99.90
61912;DHT22;49973;52.084;5.412;2022-08-19T11:18:35;28.80;99.90
61912;DHT22;49973;52.084;5.412;2022-08-19T11:21:09;28.80;99.90
61912;DHT22;49973;52.084;5.412;2022-08-19T11:23:38;28.70;99.90
61912;DHT22;49973;52.084;5.412;2022-08-19T11:26:07;28.70;99.90
61912;DHT22;49973;52.084;5.412;2022-08-19T11:28:36;28.70;99.90
61912;DHT22;49973;52.084;5.412;2022-08-19T11:31:11;28.50;99.90
61912;DHT22;49973;52.084;5.412;2022-08-19T11:33:40;28.40;99.90
61912;DHT22;49973;52.084;5.412;2022-08-19T11:36:14;28.10;99.90
61912;DHT22;49973;52.084;5.412;2022-08-19T11:38:44;27.90;99.90
61912;DHT22;49973;52.084;5.412;2022-08-19T11:41:16;28.10;99.90
61912;DHT22;49973;52.084;5.412;2022-08-19T11:43:45;28.30;99.90
61912;DHT22;49973;52.084;5.412;2022-08-19T11:46:16;28.50;99.90
61912;DHT22;49973;52.084;5.412;2022-08-19T11:48:44;28.70;99.90
61912;DHT22;49973;52.084;5.412;2022-08-19T11:51:15;29.00;99.90
61912;DHT22;49973;52.084;5.412;2022-08-19T11:53:44;29.30;99.90
61912;DHT22;49973;52.084;5.412;2022-08-19T11:56:13;29.60;99.90
61912;DHT22;49973;52.084;5.412;2022-08-19T11:58:41;29.70;99.90
61912;DHT22;49973;52.084;5.412;2022-08-19T12:01:12;29.60;99.90
61912;DHT22;49973;52.084;5.412;2022-08-19T12:03:42;29.40;99.90
61912;DHT22;49973;52.084;5.412;2022-08-19T12:06:14;29.20;99.90
61912;DHT22;49973;52.084;5.412;2022-08-19T12:08:44;28.90;99.90
61912;DHT22;49973;52.084;5.412;2022-08-19T12:11:13;28.70;99.90
61912;DHT22;49973;52.084;5.412;2022-08-19T12:13:42;28.60;99.90
61912;DHT22;49973;52.084;5.412;2022-08-19T12:16:13;28.70;99.90
61912;DHT22;49973;52.084;5.412;2022-08-19T12:18:44;28.70;99.90
61912;DHT22;49973;52.084;5.412;2022-08-19T12:21:13;28.60;99.90
61912;DHT22;49973;52.084;5.412;2022-08-19T12:23:43;28.40;99.90
61912;DHT22;49973;52.084;5.412;2022-08-19T12:26:12;28.20;99.90
61912;DHT22;49973;52.084;5.412;2022-08-19T12:28:41;28.00;99.90
61912;DHT22;49973;52.084;5.412;2022-08-19T12:31:10;27.80;99.90
61912;DHT22;49973;52.084;5.412;2022-08-19T12:33:40;27.50;99.90
61912;DHT22;49973;52.084;5.412;2022-08-19T12:36:11;27.30;99.90
61912;DHT22;49973;52.084;5.412;2022-08-19T12:38:41;27.10;99.90
61912;DHT22;49973;52.084;5.412;2022-08-19T12:41:13;27.00;99.90
61912;DHT22;49973;52.084;5.412;2022-08-19T12:43:42;26.90;99.90
61912;DHT22;49973;52.084;5.412;2022-08-19T12:46:11;26.80;99.90
61912;DHT22;49973;52.084;5.412;2022-08-19T12:48:39;26.70;99.90
61912;DHT22;49973;52.084;5.412;2022-08-19T12:51:12;26.60;99.90
61912;DHT22;49973;52.084;5.412;2022-08-19T12:53:42;26.40;99.90
61912;DHT22;49973;52.084;5.412;2022-08-19T12:56:12;26.30;99.90
61912;DHT22;49973;52.084;5.412;2022-08-19T12:58:42;26.30;99.90
61912;DHT22;49973;52.084;5.412;2022-08-19T13:01:17;26.20;99.90
61912;DHT22;49973;52.084;5.412;2022-08-19T13:03:49;26.30;99.90
61912;DHT22;49973;52.084;5.412;2022-08-19T13:06:20;26.40;99.90
61912;DHT22;49973;52.084;5.412;2022-08-19T13:08:50;26.60;99.90
61912;DHT22;49973;52.084;5.412;2022-08-19T13:11:25;26.70;99.90
61912;DHT22;49973;52.084;5.412;2022-08-19T13:13:54;26.80;99.90
61912;DHT22;49973;52.084;5.412;2022-08-19T13:16:23;27.00;99.90
61912;DHT22;49973;52.084;5.412;2022-08-19T13:18:51;27.10;99.90
61912;DHT22;49973;52.084;5.412;2022-08-19T13:21:25;27.10;99.90
61912;DHT22;49973;52.084;5.412;2022-08-19T13:23:54;27.30;99.90
61912;DHT22;49973;52.084;5.412;2022-08-19T13:26:23;27.40;99.90
61912;DHT22;49973;52.084;5.412;2022-08-19T13:28:51;27.40;99.90
61912;DHT22;49973;52.084;5.412;2022-08-19T13:31:40;27.30;99.90
61912;DHT22;49973;52.084;5.412;2022-08-19T13:34:29;27.10;99.90
61912;DHT22;49973;52.084;5.412;2022-08-19T13:37:01;26.80;99.90
61912;DHT22;49973;52.084;5.412;2022-08-19T13:39:32;26.40;99.90
61912;DHT22;49973;52.084;5.412;2022-08-19T13:42:01;26.30;99.90
61912;DHT22;49973;52.084;5.412;2022-08-19T13:44:30;26.00;99.90
61912;DHT22;49973;52.084;5.412;2022-08-19T13:47:00;25.80;99.90
61912;DHT22;49973;52.084;5.412;2022-08-19T13:49:29;25.60;99.90
61912;DHT22;49973;52.084;5.412;2022-08-19T13:51:59;25.20;99.90
61912;DHT22;49973;52.084;5.412;2022-08-19T13:54:28;25.10;99.90
61912;DHT22;49973;52.084;5.412;2022-08-19T13:56:56;24.60;99.90
61912;DHT22;49973;52.084;5.412;2022-08-19T13:59:25;24.30;99.90
61912;DHT22;49973;52.084;5.412;2022-08-19T14:01:57;23.80;99.90
61912;DHT22;49973;52.084;5.412;2022-08-19T14:04:26;23.30;99.90
61912;DHT22;49973;52.084;5.412;2022-08-19T14:06:55;22.80;99.90
61912;DHT22;49973;52.084;5.412;2022-08-19T14:09:25;22.50;99.90
61912;DHT22;49973;52.084;5.412;2022-08-19T14:11:53;22.20;99.90
61912;DHT22;49973;52.084;5.412;2022-08-19T14:14:22;22.10;99.90
61912;DHT22;49973;52.084;5.412;2022-08-19T14:16:51;21.90;99.90
61912;DHT22;49973;52.084;5.412;2022-08-19T14:19:19;21.80;99.90
61912;DHT22;49973;52.084;5.412;2022-08-19T14:21:49;21.80;99.90
61912;DHT22;49973;52.084;5.412;2022-08-19T14:24:18;21.70;99.90
61912;DHT22;49973;52.084;5.412;2022-08-19T14:26:48;21.70;99.90
61912;DHT22;49973;52.084;5.412;2022-08-19T14:29:16;21.70;99.90
61912;DHT22;49973;52.084;5.412;2022-08-19T14:31:45;21.60;99.90
61912;DHT22;49973;52.084;5.412;2022-08-19T14:34:14;21.50;99.90
61912;DHT22;49973;52.084;5.412;2022-08-19T14:36:42;21.60;99.90
61912;DHT22;49973;52.084;5.412;2022-08-19T14:39:12;21.60;99.90
61912;DHT22;49973;52.084;5.412;2022-08-19T14:41:41;21.70;99.90
61912;DHT22;49973;52.084;5.412;2022-08-19T14:44:11;21.60;99.90
61912;DHT22;49973;52.084;5.412;2022-08-19T14:46:40;21.70;99.90
61912;DHT22;49973;52.084;5.412;2022-08-19T14:49:16;21.90;99.90
61912;DHT22;49973;52.084;5.412;2022-08-19T14:51:45;21.90;99.90
61912;DHT22;49973;52.084;5.412;2022-08-19T14:54:14;22.00;99.90
61912;DHT22;49973;52.084;5.412;2022-08-19T14:56:43;22.00;99.90
61912;DHT22;49973;52.084;5.412;2022-08-19T14:59:13;22.30;99.90
61912;DHT22;49973;52.084;5.412;2022-08-19T15:01:41;22.20;99.90
61912;DHT22;49973;52.084;5.412;2022-08-19T15:04:10;22.20;99.90
61912;DHT22;49973;52.084;5.412;2022-08-19T15:06:39;22.20;99.90
61912;DHT22;49973;52.084;5.412;2022-08-19T15:09:08;22.30;99.90
61912;DHT22;49973;52.084;5.412;2022-08-19T15:11:37;22.40;99.90
61912;DHT22;49973;52.084;5.412;2022-08-19T15:14:05;22.20;99.90
61912;DHT22;49973;52.084;5.412;2022-08-19T15:16:35;22.20;99.90
61912;DHT22;49973;52.084;5.412;2022-08-19T15:19:06;22.20;99.90
61912;DHT22;49973;52.084;5.412;2022-08-19T15:21:35;22.30;99.90
61912;DHT22;49973;52.084;5.412;2022-08-19T15:24:04;22.40;99.90
61912;DHT22;49973;52.084;5.412;2022-08-19T15:26:33;22.60;99.90
61912;DHT22;49973;52.084;5.412;2022-08-19T15:29:02;22.80;99.90
61912;DHT22;49973;52.084;5.412;2022-08-19T15:31:31;23.00;99.90
61912;DHT22;49973;52.084;5.412;2022-08-19T15:34:06;23.20;99.90
61912;DHT22;49973;52.084;5.412;2022-08-19T15:36:36;23.50;99.90
61912;DHT22;49973;52.084;5.412;2022-08-19T15:39:04;23.60;99.90
61912;DHT22;49973;52.084;5.412;2022-08-19T15:41:33;23.70;99.90
61912;DHT22;49973;52.084;5.412;2022-08-19T15:44:05;23.80;99.90
61912;DHT22;49973;52.084;5.412;2022-08-19T15:46:37;24.00;99.90
61912;DHT22;49973;52.084;5.412;2022-08-19T15:49:08;24.00;99.90
61912;DHT22;49973;52.084;5.412;2022-08-19T15:51:38;24.00;99.90
61912;DHT22;49973;52.084;5.412;2022-08-19T15:54:11;23.90;99.90
61912;DHT22;49973;52.084;5.412;2022-08-19T15:56:40;23.80;99.90
61912;DHT22;49973;52.084;5.412;2022-08-19T15:59:26;23.70;99.90